createdAt,value
2023-05-08T05:03:16.298Z,25.00
2023-05-08T05:04:15.920Z,25.00
2023-05-08T05:05:16.944Z,25.00
2023-05-08T05:06:16.823Z,25.00
2023-05-08T05:07:15.801Z,25.00
2023-05-08T05:08:16.777Z,25.00
2023-05-08T05:09:16.793Z,0.00
2023-05-08T05:10:15.845Z,0.00
2023-05-08T05:11:15.758Z,0.00
2023-05-08T05:12:15.768Z,0.00
2023-05-08T05:13:16.789Z,0.00
2023-05-08T05:14:15.746Z,0.00
2023-05-08T05:15:16.732Z,0.00
2023-05-08T05:16:16.833Z,0.00
2023-05-08T05:17:15.719Z,0.00
2023-05-08T05:18:16.709Z,0.00
2023-05-08T05:19:16.726Z,0.00
2023-05-08T05:20:16.717Z,0.00
2023-05-08T05:21:16.661Z,0.00
2023-05-08T05:22:15.670Z,0.00
2023-05-08T05:23:15.660Z,0.00
2023-05-08T05:24:15.656Z,0.00
2023-05-08T05:25:15.902Z,0.00
2023-05-08T05:26:16.637Z,0.00
2023-05-08T05:27:15.637Z,0.00
2023-05-08T05:28:15.669Z,0.00
2023-05-08T05:29:16.783Z,0.00
2023-05-08T05:30:15.714Z,0.00
2023-05-08T05:31:16.656Z,0.00
2023-05-08T05:32:16.683Z,0.00
2023-05-08T05:33:16.668Z,0.00
2023-05-08T05:34:15.676Z,0.00
2023-05-08T05:35:15.766Z,0.00
2023-05-08T05:36:16.765Z,0.00
2023-05-08T05:37:15.804Z,0.00
2023-05-08T05:38:16.840Z,0.00
2023-05-08T05:39:16.870Z,0.00
2023-05-08T05:40:16.909Z,0.00
2023-05-08T05:41:16.886Z,0.00
2023-05-08T05:42:16.945Z,0.00
2023-05-08T05:43:15.951Z,0.00
2023-05-08T05:44:15.992Z,0.00
2023-05-08T05:45:17.059Z,0.00
2023-05-08T05:46:16.165Z,0.00
2023-05-08T05:47:17.176Z,0.00
2023-05-08T05:48:17.167Z,0.00
2023-05-08T05:49:16.222Z,0.00
2023-05-08T05:50:17.278Z,0.00
2023-05-08T05:51:17.306Z,0.00
2023-05-08T05:52:17.402Z,0.00
2023-05-08T05:53:17.370Z,0.00
2023-05-08T05:54:17.443Z,0.00
2023-05-08T05:55:17.553Z,0.00
2023-05-08T05:56:16.538Z,0.00
2023-05-08T05:57:17.506Z,0.00
2023-05-08T05:58:17.562Z,0.00
2023-05-08T05:59:16.502Z,0.00
2023-05-08T06:00:16.906Z,0.00
2023-05-08T06:01:17.609Z,0.00
2023-05-08T06:02:17.792Z,0.00
2023-05-08T06:03:17.800Z,0.00
2023-05-08T06:04:17.807Z,0.00
2023-05-08T06:05:16.886Z,5.76
2023-05-08T06:06:17.880Z,4.21
2023-05-08T06:07:17.981Z,29.60
2023-05-08T06:08:17.956Z,38.58
2023-05-08T06:09:18.018Z,35.02
2023-05-08T06:10:17.181Z,26.48
2023-05-08T06:11:17.080Z,33.11
2023-05-08T06:12:18.196Z,56.64
2023-05-08T06:13:18.219Z,56.10
2023-05-08T06:14:17.176Z,46.16
2023-05-08T06:15:18.272Z,52.25
2023-05-08T06:16:17.350Z,54.79
2023-05-08T06:17:18.384Z,25.00
2023-05-08T06:18:18.515Z,31.61
2023-05-08T06:19:17.463Z,24.11
2023-05-08T06:20:17.528Z,30.46
2023-05-08T06:21:17.574Z,24.24
2023-05-08T06:22:18.678Z,31.74
2023-05-08T06:23:17.681Z,30.90
2023-05-08T06:24:17.731Z,41.25
2023-05-08T06:25:18.791Z,34.13
2023-05-08T06:26:18.826Z,42.26
2023-05-08T06:27:18.932Z,28.88
2023-05-08T06:28:19.020Z,34.68
2023-05-08T06:29:18.992Z,48.94
2023-05-08T06:30:18.062Z,102.72
2023-05-08T06:32:37.515Z,25.00
2023-05-08T06:33:38.244Z,25.00
2023-05-08T06:34:37.136Z,25.00
2023-05-08T06:35:37.324Z,25.00
2023-05-08T06:36:38.533Z,25.00
2023-05-08T06:38:56.161Z,25.00
2023-05-08T06:40:10.178Z,25.00
2023-05-08T06:41:00.824Z,25.00
2023-05-08T06:41:56.224Z,25.00
2023-05-08T06:42:56.232Z,25.00
2023-05-08T06:43:57.241Z,25.00
2023-05-08T06:44:56.194Z,25.00
2023-05-08T06:45:57.241Z,25.00
2023-05-08T06:46:56.199Z,35.32
2023-05-08T06:47:56.178Z,27.14
2023-05-08T06:48:57.457Z,26.37
2023-05-08T06:49:57.172Z,38.41
2023-05-08T06:50:56.152Z,32.96
2023-05-08T06:51:58.016Z,24.04
2023-05-08T06:52:56.150Z,25.00
2023-05-08T06:53:56.173Z,32.45
2023-05-08T06:54:56.340Z,25.00
2023-05-08T06:56:00.306Z,35.21
2023-05-08T06:56:57.278Z,35.44
2023-05-08T06:57:57.272Z,33.63
2023-05-08T06:59:04.936Z,29.30
2023-05-08T06:59:57.239Z,35.72
2023-05-08T07:00:56.218Z,35.27
2023-05-08T07:01:57.280Z,32.94
2023-05-08T07:02:56.290Z,32.53
2023-05-08T07:03:56.294Z,41.92
2023-05-08T07:04:56.267Z,56.61
2023-05-08T07:05:56.183Z,48.65
2023-05-08T07:06:57.250Z,47.53
2023-05-08T07:07:56.156Z,35.81
2023-05-08T07:08:56.130Z,38.96
2023-05-08T07:09:56.201Z,40.22
2023-05-08T07:10:56.796Z,25.49
2023-05-08T07:11:56.303Z,30.92
2023-05-08T07:12:56.684Z,38.78
2023-05-08T07:15:26.066Z,25.00
2023-05-08T07:16:16.303Z,25.00
2023-05-08T07:18:34.494Z,25.00
2023-05-08T07:21:02.509Z,25.00
2023-05-08T07:23:22.513Z,25.00
2023-05-08T07:28:09.576Z,25.00
2023-05-08T07:29:23.307Z,25.00
2023-05-08T07:30:10.703Z,25.00
2023-05-08T07:31:10.202Z,25.00
2023-05-08T07:36:20.545Z,25.00
2023-05-08T07:40:04.981Z,25.00
2023-05-08T07:41:04.913Z,25.00
2023-05-08T07:42:05.866Z,25.00
2023-05-08T07:43:05.816Z,25.00
2023-05-08T07:44:05.868Z,25.00
2023-05-08T07:45:04.834Z,25.00
2023-05-08T07:46:05.818Z,35.87
2023-05-08T07:47:05.807Z,25.33
2023-05-08T07:48:05.862Z,21.88
2023-05-08T07:49:04.775Z,23.58
2023-05-08T07:50:06.052Z,30.94
2023-05-08T07:51:04.849Z,48.71
2023-05-08T07:52:04.846Z,62.01
2023-05-08T07:53:04.759Z,66.77
2023-05-08T07:54:04.754Z,52.13
2023-05-08T07:55:04.917Z,34.24
2023-05-08T07:56:04.831Z,23.01
2023-05-08T07:57:07.902Z,19.00
2023-05-08T07:58:04.745Z,41.31
2023-05-08T07:59:04.714Z,42.01
2023-05-08T08:00:04.737Z,29.18
2023-05-08T08:01:04.667Z,59.47
2023-05-08T08:02:04.723Z,25.50
2023-05-08T08:03:04.806Z,25.00
2023-05-08T08:04:05.774Z,24.27
2023-05-08T08:05:04.675Z,26.08
2023-05-08T08:06:05.699Z,3.69
2023-05-08T08:07:04.625Z,0.00
2023-05-08T08:08:05.648Z,15.24
2023-05-08T08:09:05.653Z,31.57
2023-05-08T08:10:04.694Z,79.54
2023-05-08T08:11:04.654Z,87.54
2023-05-08T08:12:05.631Z,96.20
2023-05-08T08:13:04.655Z,139.50
2023-05-08T08:14:04.672Z,120.47
2023-05-08T08:15:04.627Z,106.42
2023-05-08T08:16:05.742Z,87.61
2023-05-08T08:17:05.708Z,106.82
2023-05-08T08:18:04.630Z,102.92
2023-05-08T08:19:05.885Z,127.20
2023-05-08T08:20:05.821Z,125.95
2023-05-08T08:21:04.716Z,101.07
2023-05-08T08:22:05.604Z,99.19
2023-05-08T08:23:05.574Z,90.15
2023-05-08T08:24:05.236Z,108.02
2023-05-08T08:25:04.716Z,78.29
2023-05-08T08:26:04.788Z,82.96
2023-05-08T08:28:23.488Z,25.00
2023-05-08T08:29:23.546Z,25.00
2023-05-08T08:30:23.555Z,25.00
2023-05-08T08:31:23.598Z,25.00
2023-05-08T08:32:23.567Z,25.00
2023-05-08T08:33:24.488Z,18.25
2023-05-08T08:34:23.415Z,381.20
2023-05-08T08:35:24.449Z,241.07
2023-05-08T08:36:24.464Z,125.95
2023-05-08T08:37:23.403Z,94.84
2023-05-08T08:38:23.424Z,74.71
2023-05-08T08:39:24.465Z,204.47
2023-05-08T08:40:38.214Z,346.45
2023-05-08T08:41:23.700Z,256.98
2023-05-08T08:42:23.368Z,198.11
2023-05-08T08:43:23.389Z,205.51
2023-05-08T08:44:23.378Z,164.15
2023-05-08T08:45:24.342Z,122.27
2023-05-08T08:46:24.467Z,125.54
2023-05-08T08:47:23.566Z,281.40
2023-05-08T08:48:23.345Z,202.11
2023-05-08T08:49:24.325Z,141.96
2023-05-08T08:50:23.417Z,108.54
2023-05-08T08:51:23.343Z,99.53
2023-05-08T08:52:23.285Z,125.34
2023-05-08T08:53:23.270Z,93.04
2023-05-08T08:54:24.263Z,112.35
2023-05-08T08:55:24.288Z,133.44
2023-05-08T08:56:24.273Z,145.66
2023-05-08T08:57:24.302Z,116.76
2023-05-08T08:58:23.243Z,107.32
2023-05-08T08:59:24.271Z,111.71
2023-05-08T09:00:24.233Z,96.70
2023-05-08T09:01:24.309Z,111.25
2023-05-08T09:02:24.387Z,136.31
2023-05-08T09:03:24.434Z,232.98
2023-05-08T09:04:24.410Z,187.65
2023-05-08T09:05:24.212Z,229.74
2023-05-08T09:06:23.273Z,191.58
2023-05-08T09:07:23.194Z,136.70
2023-05-08T09:08:24.170Z,164.01
2023-05-08T09:09:23.193Z,182.52
2023-05-08T09:10:23.161Z,141.51
2023-05-08T09:11:24.187Z,170.08
2023-05-08T09:12:23.199Z,174.72
2023-05-08T09:13:23.190Z,147.39
2023-05-08T09:14:23.135Z,200.90
2023-05-08T09:15:23.173Z,218.75
2023-05-08T09:16:24.180Z,216.23
2023-05-08T09:17:23.185Z,198.18
2023-05-08T09:18:24.121Z,175.64
2023-05-08T09:19:26.199Z,159.21
2023-05-08T09:20:24.311Z,113.28
2023-05-08T09:21:25.187Z,97.96
2023-05-08T09:22:24.284Z,142.65
2023-05-08T09:23:24.217Z,163.27
2023-05-08T09:24:24.107Z,107.84
2023-05-08T09:25:24.192Z,66.92
2023-05-08T09:27:42.261Z,25.00
2023-05-08T09:28:43.395Z,25.00
2023-05-08T09:29:43.755Z,25.00
2023-05-08T09:30:42.044Z,25.00
2023-05-08T09:31:43.180Z,25.00
2023-05-08T09:32:43.071Z,23.74
2023-05-08T09:33:42.037Z,0.00
2023-05-08T09:34:43.163Z,1.70
2023-05-08T09:35:42.060Z,35.22
2023-05-08T09:36:43.009Z,22.98
2023-05-08T09:37:42.011Z,46.75
2023-05-08T09:38:42.073Z,56.01
2023-05-08T09:39:43.004Z,0.00
2023-05-08T09:40:43.026Z,0.00
2023-05-08T09:41:43.004Z,44.92
2023-05-08T09:42:43.045Z,24.28
2023-05-08T09:43:42.970Z,17.50
2023-05-08T09:44:42.969Z,46.93
2023-05-08T09:45:43.060Z,45.17
2023-05-08T09:46:41.935Z,25.10
2023-05-08T09:47:41.986Z,236.34
2023-05-08T09:48:41.941Z,286.31
2023-05-08T09:49:42.972Z,163.24
2023-05-08T09:50:43.679Z,138.06
2023-05-08T09:51:42.211Z,89.18
2023-05-08T09:52:42.016Z,55.27
2023-05-08T09:53:43.050Z,32.12
2023-05-08T09:54:43.099Z,40.20
2023-05-08T09:55:55.553Z,0.00
2023-05-08T09:56:43.371Z,0.36
2023-05-08T09:57:43.178Z,5.14
2023-05-08T09:58:43.137Z,9.26
2023-05-08T09:59:42.153Z,12.87
2023-05-08T10:00:49.777Z,9.42
2023-05-08T10:01:43.105Z,0.25
2023-05-08T10:02:43.396Z,0.69
2023-05-08T10:03:42.097Z,105.68
2023-05-08T10:04:43.133Z,184.64
2023-05-08T10:05:42.051Z,471.09
2023-05-08T10:06:42.158Z,500.00
2023-05-08T10:07:43.067Z,500.00
2023-05-08T10:08:43.027Z,500.00
2023-05-08T10:09:50.113Z,277.26
2023-05-08T10:10:43.024Z,212.08
2023-05-08T10:11:43.095Z,185.67
2023-05-08T10:12:42.033Z,227.48
2023-05-08T10:13:42.984Z,192.23
2023-05-08T10:14:44.726Z,211.06
2023-05-08T10:15:42.983Z,197.24
2023-05-08T10:18:00.975Z,25.00
2023-05-08T10:19:01.054Z,25.00
2023-05-08T10:20:00.950Z,25.00
2023-05-08T10:21:01.911Z,25.00
2023-05-08T10:22:00.932Z,25.00
2023-05-08T10:23:01.981Z,42.22
2023-05-08T10:24:01.897Z,23.20
2023-05-08T10:25:00.799Z,13.74
2023-05-08T10:26:01.780Z,354.06
2023-05-08T10:27:06.233Z,294.58
2023-05-08T10:28:02.021Z,182.52
2023-05-08T10:29:02.021Z,68.54
2023-05-08T10:30:02.075Z,0.00
2023-05-08T10:31:02.489Z,0.00
2023-05-08T10:32:01.199Z,0.00
2023-05-08T10:33:02.361Z,26.94
2023-05-08T10:34:02.221Z,13.00
2023-05-08T10:35:02.276Z,13.08
2023-05-08T10:36:02.429Z,43.57
2023-05-08T10:37:01.975Z,35.91
2023-05-08T10:38:02.485Z,88.36
2023-05-08T10:39:01.338Z,34.91
2023-05-08T10:40:01.308Z,24.00
2023-05-08T10:41:01.499Z,17.13
2023-05-08T10:42:02.449Z,42.61
2023-05-08T10:43:01.691Z,67.43
2023-05-08T10:44:03.568Z,35.25
2023-05-08T10:45:01.485Z,43.35
2023-05-08T10:46:01.567Z,23.37
2023-05-08T10:47:03.145Z,0.00
2023-05-08T10:48:01.691Z,27.46
2023-05-08T10:49:01.677Z,39.12
2023-05-08T10:50:01.659Z,12.72
2023-05-08T10:51:01.646Z,11.79
2023-05-08T10:52:02.801Z,24.18
2023-05-08T10:53:01.748Z,22.17
2023-05-08T10:54:01.799Z,48.67
2023-05-08T10:55:01.754Z,19.36
2023-05-08T10:56:01.798Z,22.64
2023-05-08T10:57:01.935Z,12.45
2023-05-08T10:58:01.869Z,14.06
2023-05-08T10:59:01.879Z,17.27
2023-05-08T11:00:01.986Z,25.44
2023-05-08T11:01:01.958Z,35.73
2023-05-08T11:02:02.141Z,39.52
2023-05-08T11:03:03.131Z,49.41
2023-05-08T11:04:03.120Z,48.59
2023-05-08T11:05:03.032Z,46.09
2023-05-08T11:06:02.999Z,45.99
2023-05-08T11:07:02.140Z,50.63
2023-05-08T11:08:03.088Z,56.12
2023-05-08T11:09:03.118Z,43.27
2023-05-08T11:10:03.241Z,67.03
2023-05-08T11:11:02.230Z,138.27
2023-05-08T11:12:03.301Z,91.30
2023-05-08T11:13:02.407Z,94.80
2023-05-08T11:14:03.264Z,93.53
2023-05-08T11:15:03.272Z,90.96
2023-05-08T11:16:02.300Z,96.35
2023-05-08T11:17:02.341Z,98.91
2023-05-08T11:18:02.421Z,86.13
2023-05-08T11:19:03.379Z,69.73
2023-05-08T11:20:03.412Z,75.20
2023-05-08T11:21:02.475Z,77.91
2023-05-08T11:22:03.462Z,74.18
2023-05-08T11:23:02.504Z,57.09
2023-05-08T11:24:02.491Z,57.83
2023-05-08T11:25:02.581Z,68.40
2023-05-08T11:26:02.566Z,84.03
2023-05-08T11:27:02.625Z,92.74
2023-05-08T11:28:02.622Z,57.73
2023-05-08T11:29:02.708Z,54.31
2023-05-08T11:30:02.728Z,58.07
2023-05-08T11:31:03.754Z,58.34
2023-05-08T11:32:03.806Z,48.35
2023-05-08T11:33:04.243Z,58.55
2023-05-08T11:34:02.815Z,68.84
2023-05-08T11:35:03.923Z,68.88
2023-05-08T11:36:02.951Z,76.01
2023-05-08T11:37:02.936Z,79.51
2023-05-08T11:38:03.049Z,87.76
2023-05-08T11:39:03.079Z,86.27
2023-05-08T11:40:03.181Z,89.13
2023-05-08T11:41:03.087Z,112.91
2023-05-08T11:42:04.239Z,108.19
2023-05-08T11:43:03.264Z,91.92
2023-05-08T11:44:03.266Z,94.06
2023-05-08T11:45:03.395Z,88.25
2023-05-08T11:46:04.443Z,90.45
2023-05-08T11:47:03.342Z,74.53
2023-05-08T11:48:04.289Z,60.95
2023-05-08T11:49:04.412Z,61.37
2023-05-08T11:50:03.477Z,53.83
2023-05-08T11:51:03.493Z,57.34
2023-05-08T11:52:04.512Z,63.83
2023-05-08T11:53:03.499Z,53.99
2023-05-08T11:54:04.617Z,48.15
2023-05-08T11:55:03.649Z,75.32
2023-05-08T11:56:03.684Z,78.72
2023-05-08T11:57:03.636Z,64.79
2023-05-08T11:58:03.932Z,59.50
2023-05-08T11:59:03.648Z,65.77
2023-05-08T12:00:03.679Z,70.62
2023-05-08T12:01:04.709Z,64.45
2023-05-08T12:02:09.025Z,69.58
2023-05-08T12:03:04.841Z,70.41
2023-05-08T12:04:03.888Z,73.63
2023-05-08T12:05:04.834Z,76.78
2023-05-08T12:06:04.726Z,82.00
2023-05-08T12:07:04.721Z,83.87
2023-05-08T12:08:03.711Z,100.93
2023-05-08T12:09:04.699Z,100.66
2023-05-08T12:10:03.696Z,96.89
2023-05-08T12:11:03.629Z,84.80
2023-05-08T12:12:04.662Z,87.23
2023-05-08T12:13:03.676Z,85.22
2023-05-08T12:14:04.672Z,82.13
2023-05-08T12:15:03.655Z,76.12
2023-05-08T12:16:04.620Z,72.27
2023-05-08T12:17:03.668Z,63.91
2023-05-08T12:18:04.722Z,58.17
2023-05-08T12:19:03.671Z,67.15
2023-05-08T12:20:03.760Z,84.27
2023-05-08T12:21:03.715Z,95.61
2023-05-08T12:22:04.814Z,95.29
2023-05-08T12:23:04.879Z,93.73
2023-05-08T12:24:03.928Z,95.03
2023-05-08T12:25:03.938Z,85.69
2023-05-08T12:26:03.880Z,74.38
2023-05-08T12:27:04.911Z,71.42
2023-05-08T12:28:03.960Z,67.29
2023-05-08T12:29:04.010Z,77.77
2023-05-08T12:30:05.101Z,82.72
2023-05-08T12:31:04.109Z,69.19
2023-05-08T12:32:05.110Z,65.07
2023-05-08T12:33:05.235Z,74.88
2023-05-08T12:34:04.232Z,65.08
2023-05-08T12:35:04.271Z,55.52
2023-05-08T12:36:04.294Z,62.66
2023-05-08T12:37:04.284Z,73.31
2023-05-08T12:38:05.237Z,76.39
2023-05-08T12:39:05.330Z,75.46
2023-05-08T12:40:04.319Z,76.04
2023-05-08T12:41:04.369Z,74.81
2023-05-08T12:42:04.449Z,79.23
2023-05-08T12:43:04.474Z,84.71
2023-05-08T12:44:05.509Z,74.82
2023-05-08T12:45:04.569Z,71.58
2023-05-08T12:46:04.765Z,58.20
2023-05-08T12:47:04.633Z,43.75
2023-05-08T12:48:04.737Z,45.46
2023-05-08T12:49:05.642Z,47.24
2023-05-08T12:50:05.688Z,62.47
2023-05-08T12:51:04.739Z,67.33
2023-05-08T12:52:05.748Z,63.39
2023-05-08T12:53:04.793Z,69.82
2023-05-08T12:54:05.852Z,92.34
2023-05-08T12:55:05.877Z,90.79
2023-05-08T12:56:05.917Z,71.62
2023-05-08T12:57:05.985Z,77.33
2023-05-08T12:58:05.032Z,85.79
2023-05-08T12:59:06.037Z,74.95
2023-05-08T13:00:06.087Z,56.92
2023-05-08T13:01:05.098Z,57.58
2023-05-08T13:02:05.367Z,65.72
2023-05-08T13:03:06.227Z,69.13
2023-05-08T13:04:06.308Z,68.75
2023-05-08T13:05:06.215Z,58.45
2023-05-08T13:06:05.239Z,60.50
2023-05-08T13:07:05.239Z,69.95
2023-05-08T13:08:05.302Z,64.14
2023-05-08T13:09:06.318Z,57.44
2023-05-08T13:10:06.359Z,70.41
2023-05-08T13:11:05.494Z,78.71
2023-05-08T13:12:06.451Z,84.06
2023-05-08T13:13:06.548Z,75.97
2023-05-08T13:14:06.540Z,72.24
2023-05-08T13:15:05.543Z,79.94
2023-05-08T13:16:06.625Z,73.92
2023-05-08T13:17:05.611Z,60.47
2023-05-08T13:18:05.799Z,69.44
2023-05-08T13:19:05.660Z,92.92
2023-05-08T13:20:06.690Z,96.99
2023-05-08T13:21:06.721Z,109.99
2023-05-08T13:22:06.752Z,99.48
2023-05-08T13:23:06.760Z,76.31
2023-05-08T13:24:06.808Z,60.39
2023-05-08T13:25:05.878Z,61.50
2023-05-08T13:26:05.914Z,51.21
2023-05-08T13:27:05.958Z,40.67
2023-05-08T13:28:07.026Z,47.34
2023-05-08T13:29:07.073Z,53.19
2023-05-08T13:30:06.073Z,50.55
2023-05-08T13:31:06.113Z,54.97
2023-05-08T13:32:06.168Z,59.05
2023-05-08T13:33:07.425Z,50.06
2023-05-08T13:34:07.219Z,47.40
2023-05-08T13:35:07.241Z,58.52
2023-05-08T13:36:07.262Z,47.50
2023-05-08T13:37:07.273Z,36.77
2023-05-08T13:38:07.306Z,47.16
2023-05-08T13:39:07.309Z,38.97
2023-05-08T13:40:06.403Z,46.91
2023-05-08T13:41:07.409Z,63.53
2023-05-08T13:42:07.436Z,61.24
2023-05-08T13:43:07.528Z,52.02
2023-05-08T13:44:07.547Z,55.44
2023-05-08T13:45:06.559Z,46.73
2023-05-08T13:46:07.619Z,40.24
2023-05-08T13:47:06.614Z,42.02
2023-05-08T13:48:07.766Z,41.90
2023-05-08T13:49:06.676Z,30.61
2023-05-08T13:50:07.660Z,29.13
2023-05-08T13:51:06.658Z,28.65
2023-05-08T13:52:07.653Z,25.88
2023-05-08T13:53:06.688Z,30.85
2023-05-08T13:54:06.790Z,36.91
2023-05-08T13:55:06.790Z,33.54
2023-05-08T13:56:07.865Z,47.52
2023-05-08T13:57:07.839Z,38.10
2023-05-08T13:58:06.870Z,33.53
2023-05-08T13:59:06.964Z,45.04
2023-05-08T14:00:06.965Z,46.81
2023-05-08T14:01:21.815Z,56.06
2023-05-08T14:02:08.116Z,56.58
2023-05-08T14:03:07.072Z,57.36
2023-05-08T14:04:08.210Z,56.35
2023-05-08T14:05:07.111Z,52.42
2023-05-08T14:06:08.009Z,50.86
2023-05-08T14:07:06.993Z,55.65
2023-05-08T14:08:07.085Z,71.00
2023-05-08T14:09:07.986Z,44.18
2023-05-08T14:10:06.987Z,52.10
2023-05-08T14:11:06.967Z,56.40
2023-05-08T14:12:06.942Z,40.70
2023-05-08T14:13:06.963Z,49.84
2023-05-08T14:14:07.954Z,57.76
2023-05-08T14:15:07.928Z,51.18
2023-05-08T14:16:08.008Z,55.16
2023-05-08T14:17:06.934Z,39.67
2023-05-08T14:18:06.950Z,44.27
2023-05-08T14:19:07.911Z,30.63
2023-05-08T14:20:09.144Z,23.39
2023-05-08T14:21:07.049Z,29.16
2023-05-08T14:22:07.931Z,59.70
2023-05-08T14:23:06.931Z,50.47
2023-05-08T14:24:07.023Z,39.16
2023-05-08T14:25:07.923Z,33.37
2023-05-08T14:26:07.903Z,42.81
2023-05-08T14:27:07.897Z,45.43
2023-05-08T14:28:06.901Z,41.10
2023-05-08T14:29:06.944Z,45.32
2023-05-08T14:30:06.871Z,46.82
2023-05-08T14:31:07.907Z,42.70
2023-05-08T14:32:07.870Z,42.45
2023-05-08T14:33:07.897Z,45.34
2023-05-08T14:34:06.865Z,66.41
2023-05-08T14:35:06.893Z,70.05
2023-05-08T14:36:07.819Z,63.67
2023-05-08T14:37:07.943Z,63.21
2023-05-08T14:38:06.816Z,65.56
2023-05-08T14:39:07.829Z,60.61
2023-05-08T14:40:06.811Z,55.32
2023-05-08T14:41:06.825Z,56.83
2023-05-08T14:43:07.787Z,58.09
2023-05-08T14:44:06.784Z,51.00
2023-05-08T14:45:07.837Z,59.41
2023-05-08T14:46:07.022Z,61.04
2023-05-08T14:47:07.778Z,70.47
2023-05-08T14:48:07.910Z,74.94
2023-05-08T14:49:08.074Z,80.81
2023-05-08T14:50:08.229Z,69.55
2023-05-08T14:51:08.443Z,60.98
2023-05-08T14:52:08.062Z,59.15
2023-05-08T14:53:07.092Z,59.30
2023-05-08T14:54:07.220Z,70.84
2023-05-08T14:55:07.372Z,61.28
2023-05-08T14:57:26.504Z,25.00
2023-05-08T14:58:26.210Z,25.00
2023-05-08T14:59:27.396Z,25.00
2023-05-08T15:00:26.825Z,25.00
2023-05-08T15:01:26.317Z,25.00
2023-05-08T15:02:26.640Z,25.00
2023-05-08T15:03:27.703Z,15.73
2023-05-08T15:04:27.442Z,27.89
2023-05-08T15:05:27.147Z,44.61
2023-05-08T15:06:26.518Z,8.54
2023-05-08T15:07:26.542Z,57.80
2023-05-08T15:08:26.391Z,106.28
2023-05-08T15:10:45.668Z,25.00
2023-05-08T15:11:46.463Z,25.00
2023-05-08T15:12:45.555Z,25.00
2023-05-08T15:15:04.901Z,25.00
2023-05-08T15:16:04.578Z,25.00
2023-05-08T15:18:23.562Z,25.00
2023-05-08T15:19:24.288Z,25.00
2023-05-08T15:20:23.338Z,25.00
2023-05-08T15:22:42.840Z,25.00
2023-05-08T15:23:42.683Z,25.00
2023-05-08T15:24:43.612Z,25.00
2023-05-08T15:25:42.597Z,25.00
2023-05-08T15:26:42.599Z,25.00
2023-05-08T15:27:43.611Z,19.21
2023-05-08T15:28:43.809Z,91.01
2023-05-08T15:29:44.113Z,73.64
